Terminal Aerodrome Forecast
Issued by NWS

Home | Current Version | Previous Version | Text Only | Print | Product List | Glossary On
Versions: 1 2 3 4 5 6 7 8 9 10 11 12 13 14 15 16
000
FTUS43 KGRR 300520
TAFBTL
TAF
KBTL 300520Z 3006/3106 18007KT P6SM VCSH SCT050 BKN100
     FM300900 23006KT 5SM BR VCSH OVC015
     FM301200 31006KT 2SM -RA BR OVC005
     FM302200 36010G20KT 2SM -RA BR OVC005
     FM310500 35014G24KT 4SM -RA BR OVC012=

USA.gov is the U.S. government's official web portal to all federal, state and local government web resources and services.